createdAt,value
2023-01-19T00:01:30.211Z,12.60
2023-01-19T00:03:59.376Z,10.30
2023-01-19T00:06:27.091Z,11.02
2023-01-19T00:08:54.909Z,12.38
2023-01-19T00:11:22.752Z,11.90
2023-01-19T00:13:51.027Z,7.70
2023-01-19T00:16:22.882Z,8.50
2023-01-19T00:18:52.226Z,9.27
2023-01-19T00:21:22.640Z,10.73
2023-01-19T00:23:52.533Z,7.97
2023-01-19T00:26:22.280Z,10.10
2023-01-19T00:28:50.823Z,11.68
2023-01-19T00:31:20.543Z,10.95
2023-01-19T00:33:49.358Z,9.82
2023-01-19T00:36:17.424Z,9.48
2023-01-19T00:38:46.567Z,10.00
2023-01-19T00:41:14.313Z,9.07
2023-01-19T00:43:41.037Z,9.80
2023-01-19T00:46:08.788Z,10.35
2023-01-19T00:48:36.685Z,10.82
2023-01-19T00:51:04.744Z,8.40
2023-01-19T00:53:32.540Z,8.77
2023-01-19T00:56:01.710Z,12.93
2023-01-19T00:58:29.405Z,9.50
2023-01-19T01:01:03.584Z,10.40
2023-01-19T01:03:31.666Z,10.23
2023-01-19T01:05:59.429Z,9.68
2023-01-19T01:08:27.124Z,11.10
2023-01-19T01:10:56.090Z,8.85
2023-01-19T01:13:27.490Z,9.90
2023-01-19T01:15:56.926Z,10.77
2023-01-19T01:18:25.057Z,10.27
2023-01-19T01:20:55.172Z,9.88
2023-01-19T01:23:23.667Z,11.57
2023-01-19T01:25:51.405Z,8.32
2023-01-19T01:28:19.159Z,10.30
2023-01-19T01:30:48.213Z,12.82
2023-01-19T01:33:15.947Z,10.95
2023-01-19T01:36:03.603Z,11.10
2023-01-19T01:38:31.284Z,7.88
2023-01-19T01:40:58.995Z,9.43
2023-01-19T01:43:43.768Z,10.43
2023-01-19T01:46:15.467Z,9.43
2023-01-19T01:48:47.588Z,11.18
2023-01-19T01:51:26.708Z,14.45
2023-01-19T01:54:07.887Z,10.75
2023-01-19T01:56:39.745Z,11.05
2023-01-19T01:59:10.582Z,11.70
2023-01-19T02:01:57.892Z,11.52
2023-01-19T02:07:11.078Z,10.15
2023-01-19T02:09:56.578Z,9.43
2023-01-19T02:12:42.485Z,9.25
2023-01-19T02:15:17.104Z,10.02
2023-01-19T02:17:46.287Z,10.40
2023-01-19T02:20:14.719Z,10.02
2023-01-19T02:22:49.020Z,12.80
2023-01-19T02:25:21.112Z,7.20
2023-01-19T02:27:50.143Z,10.32
2023-01-19T02:30:18.906Z,8.73
2023-01-19T02:32:47.021Z,7.30
2023-01-19T02:35:14.935Z,6.85
2023-01-19T02:37:44.788Z,9.82
2023-01-19T02:40:15.238Z,9.40
2023-01-19T02:42:46.902Z,10.30
2023-01-19T02:45:18.178Z,9.02
2023-01-19T02:47:49.209Z,11.15
2023-01-19T02:50:43.629Z,8.68
2023-01-19T02:53:24.323Z,11.60
2023-01-19T02:55:58.085Z,9.57
2023-01-19T02:58:34.788Z,11.63
2023-01-19T03:01:14.541Z,11.50
2023-01-19T03:03:53.040Z,13.07
2023-01-19T03:06:34.593Z,11.18
2023-01-19T03:09:05.455Z,8.20
2023-01-19T03:11:39.957Z,9.60
2023-01-19T03:14:12.373Z,9.48
2023-01-19T03:16:43.898Z,11.13
2023-01-19T03:19:19.174Z,11.20
2023-01-19T03:21:50.048Z,7.45
2023-01-19T03:24:20.512Z,8.90
2023-01-19T03:26:52.211Z,9.20
2023-01-19T03:29:23.552Z,9.00
2023-01-19T03:31:53.484Z,9.25
2023-01-19T03:34:23.995Z,8.18
2023-01-19T03:36:54.456Z,9.73
2023-01-19T03:39:25.746Z,8.43
2023-01-19T03:41:56.061Z,8.35
2023-01-19T03:44:28.679Z,11.38
2023-01-19T03:46:57.694Z,9.27
2023-01-19T03:49:25.783Z,8.95
2023-01-19T03:51:56.511Z,7.78
2023-01-19T03:54:24.444Z,6.95
2023-01-19T03:56:52.908Z,8.40
2023-01-19T03:59:21.771Z,7.38
2023-01-19T04:01:51.003Z,8.73
2023-01-19T04:04:18.732Z,6.75
2023-01-19T04:06:46.471Z,6.70
2023-01-19T04:09:14.374Z,7.15
2023-01-19T04:11:42.113Z,7.22
2023-01-19T04:14:09.843Z,6.45
2023-01-19T04:16:37.530Z,6.38
2023-01-19T04:19:06.590Z,5.28
2023-01-19T04:21:34.931Z,5.85
2023-01-19T04:24:02.678Z,4.75
2023-01-19T04:26:30.341Z,5.85
2023-01-19T04:28:59.048Z,5.15
2023-01-19T04:31:27.242Z,5.53
2023-01-19T04:33:57.016Z,3.97
2023-01-19T04:36:26.152Z,3.78
2023-01-19T04:38:53.808Z,4.13
2023-01-19T04:41:21.742Z,5.47
2023-01-19T04:43:49.528Z,4.90
2023-01-19T04:46:17.260Z,4.45
2023-01-19T04:48:45.034Z,4.32
2023-01-19T04:51:12.721Z,3.95
2023-01-19T04:53:41.765Z,4.05
2023-01-19T04:56:09.457Z,3.75
2023-01-19T04:58:37.227Z,4.50
2023-01-19T05:01:08.739Z,3.50
2023-01-19T05:03:36.548Z,4.00
2023-01-19T05:06:04.745Z,3.58
2023-01-19T05:08:32.436Z,4.55
2023-01-19T05:11:01.613Z,4.10
2023-01-19T05:13:29.271Z,4.03
2023-01-19T05:15:57.024Z,5.25
2023-01-19T05:18:24.709Z,3.83
2023-01-19T05:20:52.417Z,5.28
2023-01-19T05:23:20.122Z,4.78
2023-01-19T05:25:48.031Z,5.50
2023-01-19T05:28:17.134Z,4.65
2023-01-19T05:30:44.915Z,4.85
2023-01-19T05:33:12.613Z,4.72
2023-01-19T05:35:40.306Z,5.13
2023-01-19T05:38:08.020Z,5.93
2023-01-19T05:40:35.797Z,4.65
2023-01-19T05:43:05.202Z,5.00
2023-01-19T05:45:34.895Z,4.90
2023-01-19T05:48:02.807Z,5.90
2023-01-19T05:50:30.611Z,4.72
2023-01-19T05:52:59.053Z,4.57
2023-01-19T05:55:27.505Z,6.25
2023-01-19T05:57:55.275Z,5.57
2023-01-19T06:00:23.305Z,5.60
2023-01-19T06:02:52.344Z,4.10
2023-01-19T06:05:20.299Z,4.97
2023-01-19T06:07:48.011Z,4.93
2023-01-19T06:10:15.714Z,5.60
2023-01-19T06:12:43.996Z,4.63
2023-01-19T06:15:12.832Z,4.32
2023-01-19T06:17:40.543Z,4.90
2023-01-19T06:20:11.108Z,6.65
2023-01-19T06:22:38.819Z,5.57
2023-01-19T06:25:07.317Z,6.82
2023-01-19T06:27:35.049Z,5.32
2023-01-19T06:30:02.859Z,5.75
2023-01-19T06:32:30.966Z,4.15
2023-01-19T06:34:58.692Z,7.10
2023-01-19T06:37:28.609Z,5.55
2023-01-19T06:39:56.326Z,5.82
2023-01-19T06:42:24.107Z,4.97
2023-01-19T06:44:51.811Z,4.97
2023-01-19T06:47:19.527Z,6.60
2023-01-19T06:49:48.097Z,4.80
2023-01-19T06:52:17.488Z,5.78
2023-01-19T06:54:46.800Z,7.53
2023-01-19T06:57:15.185Z,7.03
2023-01-19T06:59:43.134Z,6.93
2023-01-19T07:02:26.557Z,6.43
2023-01-19T07:04:55.815Z,8.77
2023-01-19T07:07:23.529Z,5.75
2023-01-19T07:09:53.867Z,7.15
2023-01-19T07:12:22.023Z,5.85
2023-01-19T07:14:50.429Z,7.72
2023-01-19T07:17:18.302Z,7.80
2023-01-19T07:19:46.534Z,6.45
2023-01-19T07:22:14.225Z,6.05
2023-01-19T07:24:41.947Z,7.47
2023-01-19T07:27:11.581Z,8.40
2023-01-19T07:29:39.614Z,6.13
2023-01-19T07:32:07.605Z,10.68
2023-01-19T07:34:36.442Z,7.93
2023-01-19T07:37:04.436Z,8.32
2023-01-19T07:39:32.484Z,8.95
2023-01-19T07:42:00.348Z,9.57
2023-01-19T07:44:29.406Z,11.50
2023-01-19T07:46:57.108Z,9.90
2023-01-19T07:49:25.548Z,14.63
2023-01-19T07:51:53.252Z,11.88
2023-01-19T07:54:21.272Z,10.93
2023-01-19T07:56:49.013Z,9.68
2023-01-19T07:59:16.783Z,12.55
2023-01-19T08:01:45.990Z,10.55
2023-01-19T08:04:14.141Z,11.23
2023-01-19T08:06:46.253Z,14.50
2023-01-19T08:09:14.297Z,14.43
2023-01-19T08:11:42.013Z,14.50
2023-01-19T08:14:10.016Z,15.98
2023-01-19T08:16:37.747Z,16.90
2023-01-19T08:19:07.045Z,16.60
2023-01-19T08:21:35.945Z,15.95
2023-01-19T08:24:03.738Z,19.75
2023-01-19T08:26:32.910Z,17.58
2023-01-19T08:29:03.122Z,13.57
2023-01-19T08:31:31.225Z,16.98
2023-01-19T08:33:59.058Z,16.60
2023-01-19T08:36:28.277Z,14.70
2023-01-19T08:38:56.080Z,18.40
2023-01-19T08:41:23.967Z,17.60
2023-01-19T08:43:51.667Z,20.60
2023-01-19T08:46:21.900Z,16.05
2023-01-19T08:48:50.346Z,21.25
2023-01-19T08:51:19.062Z,23.00
2023-01-19T08:53:48.194Z,17.65
2023-01-19T08:56:15.988Z,17.17
2023-01-19T08:58:46.716Z,20.30
2023-01-19T09:01:18.815Z,17.95
2023-01-19T09:03:47.110Z,21.50
2023-01-19T09:06:17.131Z,21.92
2023-01-19T09:08:45.362Z,18.15
2023-01-19T09:11:17.304Z,18.75
2023-01-19T09:13:45.742Z,21.92
2023-01-19T09:16:15.293Z,24.13
2023-01-19T09:18:43.295Z,19.65
2023-01-19T09:21:11.548Z,17.55
2023-01-19T09:23:39.308Z,20.40
2023-01-19T09:26:07.601Z,19.80
2023-01-19T09:28:38.142Z,22.65
2023-01-19T09:31:07.960Z,20.83
2023-01-19T09:33:36.230Z,21.55
2023-01-19T09:36:04.038Z,17.63
2023-01-19T09:38:33.064Z,17.83
2023-01-19T09:41:01.842Z,19.73
2023-01-19T09:43:40.709Z,21.23
2023-01-19T09:46:15.196Z,19.17
2023-01-19T09:48:48.672Z,21.58
2023-01-19T09:51:20.209Z,19.02
2023-01-19T09:54:03.964Z,17.20
2023-01-19T09:56:32.783Z,17.67
2023-01-19T09:59:02.661Z,16.88
2023-01-19T10:01:46.503Z,15.77
2023-01-19T10:04:41.280Z,19.48
2023-01-19T10:07:20.517Z,13.90
2023-01-19T10:10:04.064Z,18.52
2023-01-19T10:12:44.678Z,17.55
2023-01-19T10:15:27.706Z,19.02
2023-01-19T10:18:09.495Z,18.23
2023-01-19T10:20:41.535Z,21.20
2023-01-19T10:23:22.939Z,18.88
2023-01-19T10:25:50.717Z,17.33
2023-01-19T10:28:24.067Z,14.18
2023-01-19T10:30:55.828Z,18.73
2023-01-19T10:33:23.754Z,16.05
2023-01-19T10:35:51.528Z,16.58
2023-01-19T10:38:22.204Z,14.13
2023-01-19T10:40:58.460Z,15.60
2023-01-19T10:43:44.215Z,13.52
2023-01-19T10:46:22.081Z,19.88
2023-01-19T10:48:52.119Z,18.88
2023-01-19T10:51:20.223Z,16.30
2023-01-19T10:53:57.278Z,15.23
2023-01-19T10:58:53.398Z,15.27
2023-01-19T11:01:24.214Z,16.63
2023-01-19T11:03:53.324Z,19.05
2023-01-19T11:06:26.917Z,20.60
2023-01-19T11:09:10.460Z,15.82
2023-01-19T11:11:44.205Z,14.40
2023-01-19T11:14:13.825Z,22.33
2023-01-19T11:16:48.360Z,16.25
2023-01-19T11:19:21.700Z,16.98
2023-01-19T11:21:49.545Z,16.67
2023-01-19T11:24:17.737Z,21.38
2023-01-19T11:26:47.916Z,18.00
2023-01-19T11:29:19.084Z,20.42
2023-01-19T11:31:48.617Z,18.80
2023-01-19T11:34:32.667Z,17.02
2023-01-19T11:37:02.485Z,18.70
2023-01-19T11:39:31.627Z,16.35
2023-01-19T11:42:02.438Z,18.90
2023-01-19T11:44:33.797Z,14.38
2023-01-19T11:47:05.967Z,18.85
2023-01-19T11:49:41.481Z,18.85
2023-01-19T11:52:20.807Z,19.20
2023-01-19T11:54:55.668Z,12.38
2023-01-19T11:57:23.580Z,12.70
2023-01-19T11:59:51.297Z,15.65
2023-01-19T12:02:28.258Z,16.35
2023-01-19T12:07:29.337Z,14.55
2023-01-19T12:10:07.471Z,15.02
2023-01-19T12:12:40.450Z,17.50
2023-01-19T12:15:22.389Z,12.48
2023-01-19T12:17:54.640Z,10.60
2023-01-19T12:20:30.024Z,14.90
2023-01-19T12:23:08.412Z,14.30
2023-01-19T12:25:48.314Z,17.10
2023-01-19T12:28:19.771Z,17.27
2023-01-19T12:30:47.864Z,15.23
2023-01-19T12:33:38.319Z,12.77
2023-01-19T12:36:11.426Z,13.40
2023-01-19T12:38:46.561Z,14.88
2023-01-19T12:41:20.948Z,14.27
2023-01-19T12:43:49.863Z,13.70
2023-01-19T12:46:25.613Z,12.77
2023-01-19T12:48:55.383Z,16.40
2023-01-19T12:51:24.471Z,11.23
2023-01-19T12:53:54.452Z,16.38
2023-01-19T12:56:31.055Z,13.23
2023-01-19T12:58:59.047Z,16.23
2023-01-19T13:01:27.028Z,15.65
2023-01-19T13:04:06.637Z,18.75
2023-01-19T13:07:13.679Z,13.38
2023-01-19T13:09:43.114Z,17.52
2023-01-19T13:12:25.696Z,15.43
2023-01-19T13:15:28.584Z,15.55
2023-01-19T13:17:56.981Z,20.63
2023-01-19T13:20:29.522Z,16.23
2023-01-19T13:23:23.362Z,16.52
2023-01-19T13:26:02.363Z,14.50
2023-01-19T13:28:38.753Z,14.23
2023-01-19T13:31:07.297Z,16.17
2023-01-19T13:33:44.228Z,19.23
2023-01-19T13:36:29.767Z,20.63
2023-01-19T13:39:00.224Z,23.48
2023-01-19T13:41:31.681Z,15.52
2023-01-19T13:44:03.245Z,21.25
2023-01-19T13:46:33.260Z,16.80
2023-01-19T13:49:05.683Z,15.93
2023-01-19T13:51:34.730Z,16.52
2023-01-19T13:54:02.774Z,15.43
2023-01-19T13:56:31.043Z,18.38
2023-01-19T13:59:01.218Z,13.82
2023-01-19T14:01:30.136Z,19.02
2023-01-19T14:03:58.241Z,14.27
2023-01-19T14:06:35.561Z,18.00
2023-01-19T14:09:16.844Z,17.92
2023-01-19T14:11:45.455Z,24.08
2023-01-19T14:14:27.654Z,18.52
2023-01-19T14:16:55.868Z,24.17
2023-01-19T14:19:23.948Z,19.27
2023-01-19T14:22:05.631Z,17.65
2023-01-19T14:24:33.434Z,27.83
2023-01-19T14:27:20.343Z,18.75
2023-01-19T14:29:50.477Z,19.00
2023-01-19T14:32:19.742Z,16.95
2023-01-19T14:34:50.175Z,17.83
2023-01-19T14:37:22.797Z,17.38
2023-01-19T14:39:52.419Z,20.85
2023-01-19T14:42:24.792Z,15.70
2023-01-19T14:44:54.288Z,16.20
2023-01-19T14:47:37.863Z,20.02
2023-01-19T14:50:19.977Z,19.33
2023-01-19T14:52:57.023Z,16.27
2023-01-19T14:57:55.669Z,26.20
2023-01-19T15:00:27.137Z,15.02
2023-01-19T15:02:54.912Z,13.80
2023-01-19T15:05:22.701Z,18.73
2023-01-19T15:07:52.587Z,17.67
2023-01-19T15:10:22.255Z,17.77
2023-01-19T15:12:51.249Z,20.27
2023-01-19T15:15:25.836Z,16.50
2023-01-19T15:17:56.297Z,17.05
2023-01-19T15:20:24.747Z,18.25
2023-01-19T15:22:53.840Z,18.02
2023-01-19T15:25:26.089Z,18.67
2023-01-19T15:27:54.162Z,13.88
2023-01-19T15:30:27.799Z,17.77
2023-01-19T15:32:55.606Z,17.80
2023-01-19T15:35:25.951Z,16.45
2023-01-19T15:37:55.002Z,16.55
2023-01-19T15:40:23.282Z,15.82
2023-01-19T15:42:51.511Z,15.88
2023-01-19T15:45:42.980Z,16.17
2023-01-19T15:48:12.356Z,16.35
2023-01-19T15:50:42.192Z,16.15
2023-01-19T15:53:15.229Z,15.90
2023-01-19T15:55:43.009Z,17.25
2023-01-19T15:58:12.078Z,17.70
2023-01-19T16:00:41.981Z,14.65
2023-01-19T16:03:11.384Z,16.33
2023-01-19T16:05:43.353Z,17.23
2023-01-19T16:08:13.066Z,17.48
2023-01-19T16:10:41.368Z,19.75
2023-01-19T16:13:10.083Z,16.30
2023-01-19T16:15:38.777Z,14.68
2023-01-19T16:18:06.859Z,15.00
2023-01-19T16:20:34.751Z,20.00
2023-01-19T16:23:14.603Z,16.13
2023-01-19T16:25:44.726Z,16.85
2023-01-19T16:28:12.499Z,19.85
2023-01-19T16:30:40.394Z,17.13
2023-01-19T16:33:08.459Z,14.95
2023-01-19T16:35:36.210Z,17.05
2023-01-19T16:38:03.994Z,15.75
2023-01-19T16:40:31.747Z,18.17
2023-01-19T16:43:00.862Z,14.80
2023-01-19T16:45:28.799Z,18.98
2023-01-19T16:47:56.540Z,18.73
2023-01-19T16:50:24.339Z,18.17
2023-01-19T16:52:57.699Z,17.92
2023-01-19T16:55:25.387Z,16.98
2023-01-19T16:57:53.505Z,19.05
2023-01-19T17:00:22.911Z,17.70
2023-01-19T17:02:50.668Z,18.35
2023-01-19T17:05:18.559Z,15.65
2023-01-19T17:07:46.243Z,16.98
2023-01-19T17:10:14.197Z,20.60
2023-01-19T17:12:41.899Z,17.85
2023-01-19T17:15:10.420Z,16.65
2023-01-19T17:17:39.558Z,19.75
2023-01-19T17:20:08.412Z,15.93
2023-01-19T17:22:36.273Z,16.38
2023-01-19T17:25:04.223Z,21.15
2023-01-19T17:27:32.015Z,20.95
2023-01-19T17:29:59.748Z,16.35
2023-01-19T17:32:27.464Z,17.60
2023-01-19T17:34:56.535Z,22.35
2023-01-19T17:37:24.265Z,22.15
2023-01-19T17:39:51.971Z,19.90
2023-01-19T17:42:19.667Z,21.33
2023-01-19T17:44:47.387Z,19.10
2023-01-19T17:47:15.098Z,15.40
2023-01-19T17:49:42.867Z,17.08
2023-01-19T17:52:11.932Z,19.98
2023-01-19T17:54:39.617Z,17.63
2023-01-19T17:57:07.401Z,23.40
2023-01-19T17:59:35.183Z,18.92
2023-01-19T18:02:02.978Z,23.63
2023-01-19T18:04:32.213Z,22.77
2023-01-19T18:07:00.056Z,19.10
2023-01-19T18:09:29.185Z,20.92
2023-01-19T18:11:56.874Z,22.40
2023-01-19T18:14:24.583Z,18.05
2023-01-19T18:16:52.324Z,20.67
2023-01-19T18:19:22.152Z,18.40
2023-01-19T18:21:50.970Z,21.05
2023-01-19T18:24:18.817Z,20.30
2023-01-19T18:26:47.886Z,15.82
2023-01-19T18:29:16.624Z,17.52
2023-01-19T18:31:44.408Z,17.13
2023-01-19T18:34:12.184Z,16.73
2023-01-19T18:36:39.885Z,21.60
2023-01-19T18:39:09.393Z,19.60
2023-01-19T18:41:41.584Z,18.00
2023-01-19T18:44:11.258Z,17.70
2023-01-19T18:46:40.162Z,18.88
2023-01-19T18:49:07.902Z,17.95
2023-01-19T18:51:36.668Z,17.15
2023-01-19T18:54:04.452Z,20.35
2023-01-19T18:56:32.155Z,14.60
2023-01-19T18:59:00.106Z,17.05
2023-01-19T19:01:32.954Z,18.13
2023-01-19T19:04:01.172Z,17.00
2023-01-19T19:06:29.222Z,18.85
2023-01-19T19:08:59.200Z,17.95
2023-01-19T19:11:27.131Z,17.05
2023-01-19T19:13:56.651Z,19.27
2023-01-19T19:16:24.558Z,17.02
2023-01-19T19:18:53.789Z,14.63
2023-01-19T19:21:23.980Z,19.00
2023-01-19T19:23:52.751Z,15.98
2023-01-19T19:26:20.783Z,18.10
2023-01-19T19:28:48.563Z,21.10
2023-01-19T19:31:18.192Z,21.85
2023-01-19T19:33:45.936Z,18.70
2023-01-19T19:36:15.591Z,23.50
2023-01-19T19:38:44.483Z,16.42
2023-01-19T19:41:14.326Z,18.60
2023-01-19T19:43:42.080Z,18.38
2023-01-19T19:46:11.613Z,17.65
2023-01-19T19:48:39.921Z,18.98
2023-01-19T19:51:18.024Z,19.50
2023-01-19T19:53:51.155Z,19.17
2023-01-19T19:56:21.952Z,19.35
2023-01-19T19:58:50.462Z,21.50
2023-01-19T20:01:20.109Z,19.08
2023-01-19T20:03:47.935Z,20.85
2023-01-19T20:06:20.639Z,17.45
2023-01-19T20:08:50.505Z,18.88
2023-01-19T20:11:19.942Z,20.10
2023-01-19T20:13:47.812Z,21.90
2023-01-19T20:16:17.444Z,18.80
2023-01-19T20:18:48.579Z,20.25
2023-01-19T20:21:18.123Z,23.15
2023-01-19T20:23:46.837Z,18.25
2023-01-19T20:26:17.934Z,17.85
2023-01-19T20:28:45.957Z,17.08
2023-01-19T20:31:16.324Z,20.65
2023-01-19T20:33:44.931Z,20.20
2023-01-19T20:36:12.959Z,18.70
2023-01-19T20:38:41.485Z,20.17
2023-01-19T20:41:11.031Z,18.42
2023-01-19T20:43:40.487Z,22.73
2023-01-19T20:46:08.289Z,19.63
2023-01-19T20:48:36.182Z,24.38
2023-01-19T20:51:05.442Z,20.00
2023-01-19T20:53:33.456Z,20.73
2023-01-19T20:56:06.096Z,23.60
2023-01-19T20:58:34.382Z,18.88
2023-01-19T21:01:10.948Z,20.48
2023-01-19T21:03:38.856Z,17.92
2023-01-19T21:06:06.958Z,27.88
2023-01-19T21:08:34.748Z,23.58
2023-01-19T21:11:02.524Z,27.80
2023-01-19T21:13:30.626Z,18.40
2023-01-19T21:15:58.565Z,21.60
2023-01-19T21:18:28.030Z,22.80
2023-01-19T21:20:57.424Z,23.77
2023-01-19T21:23:25.542Z,18.25
2023-01-19T21:25:55.026Z,23.45
2023-01-19T21:28:23.697Z,19.27
2023-01-19T21:30:52.145Z,21.10
2023-01-19T21:33:21.136Z,19.83
2023-01-19T21:35:54.641Z,21.13
2023-01-19T21:38:23.421Z,20.70
2023-01-19T21:40:51.286Z,28.38
2023-01-19T21:43:20.093Z,20.98
2023-01-19T21:45:48.917Z,20.20
2023-01-19T21:48:17.002Z,19.85
2023-01-19T21:50:44.911Z,22.15
2023-01-19T21:53:13.994Z,22.60
2023-01-19T21:55:45.525Z,23.27
2023-01-19T21:58:13.332Z,19.55
2023-01-19T22:00:41.179Z,20.35
2023-01-19T22:03:09.101Z,21.00
2023-01-19T22:05:37.481Z,20.52
2023-01-19T22:08:06.303Z,20.50
2023-01-19T22:10:38.142Z,22.73
2023-01-19T22:13:06.754Z,22.73
2023-01-19T22:15:34.533Z,24.75
2023-01-19T22:18:02.303Z,25.58
2023-01-19T22:20:30.054Z,23.92
2023-01-19T22:22:58.067Z,24.77
2023-01-19T22:25:27.798Z,20.80
2023-01-19T22:27:58.635Z,23.85
2023-01-19T22:30:26.577Z,23.42
2023-01-19T22:32:54.527Z,24.00
2023-01-19T22:35:22.266Z,22.98
2023-01-19T22:37:49.959Z,22.90
2023-01-19T22:40:18.375Z,27.20
2023-01-19T22:42:47.638Z,24.27
2023-01-19T22:45:17.014Z,21.00
2023-01-19T22:47:44.859Z,20.40
2023-01-19T22:50:13.009Z,25.00
2023-01-19T22:52:40.718Z,24.88
2023-01-19T22:55:08.984Z,24.77
2023-01-19T22:57:37.328Z,26.45
2023-01-19T23:00:07.021Z,22.48
2023-01-19T23:02:36.147Z,25.67
2023-01-19T23:05:03.907Z,25.33
2023-01-19T23:07:31.606Z,23.58
2023-01-19T23:09:59.522Z,24.25
2023-01-19T23:12:27.285Z,24.60
2023-01-19T23:14:55.066Z,27.50
2023-01-19T23:17:22.784Z,28.65
2023-01-19T23:19:51.807Z,22.25
2023-01-19T23:22:19.653Z,26.25
2023-01-19T23:24:47.363Z,27.73
2023-01-19T23:27:15.080Z,28.70
2023-01-19T23:29:42.791Z,28.63
2023-01-19T23:32:10.450Z,28.90
2023-01-19T23:34:38.162Z,25.20
2023-01-19T23:37:07.232Z,26.52
2023-01-19T23:39:34.922Z,28.02
2023-01-19T23:42:03.575Z,26.00
2023-01-19T23:44:31.307Z,26.25
2023-01-19T23:46:58.989Z,26.90
2023-01-19T23:49:26.980Z,24.08
2023-01-19T23:51:54.672Z,28.63
2023-01-19T23:54:23.768Z,26.58
2023-01-19T23:56:51.490Z,29.13
2023-01-19T23:59:19.250Z,28.92
